sensor_id;sensor_type;location;lat;lon;timestamp;P1;durP1;ratioP1;P2;durP2;ratioP2
19149;SDS011;9707;49.158;8.632;2023-05-29T00:00:21;4.85;;;2.90;;
19149;SDS011;9707;49.158;8.632;2023-05-29T00:02:47;5.30;;;3.20;;
19149;SDS011;9707;49.158;8.632;2023-05-29T00:05:14;5.82;;;3.38;;
19149;SDS011;9707;49.158;8.632;2023-05-29T00:07:40;7.47;;;3.47;;
19149;SDS011;9707;49.158;8.632;2023-05-29T00:10:06;6.55;;;3.60;;
19149;SDS011;9707;49.158;8.632;2023-05-29T00:12:32;6.20;;;3.50;;
19149;SDS011;9707;49.158;8.632;2023-05-29T00:14:58;5.78;;;3.90;;
19149;SDS011;9707;49.158;8.632;2023-05-29T00:17:24;7.20;;;4.03;;
19149;SDS011;9707;49.158;8.632;2023-05-29T00:19:49;6.70;;;3.67;;
19149;SDS011;9707;49.158;8.632;2023-05-29T00:22:15;5.47;;;3.83;;
19149;SDS011;9707;49.158;8.632;2023-05-29T00:24:40;4.93;;;3.55;;
19149;SDS011;9707;49.158;8.632;2023-05-29T00:27:06;6.32;;;3.75;;
19149;SDS011;9707;49.158;8.632;2023-05-29T00:29:31;6.53;;;3.70;;
19149;SDS011;9707;49.158;8.632;2023-05-29T00:31:56;7.80;;;4.32;;
19149;SDS011;9707;49.158;8.632;2023-05-29T00:34:22;6.15;;;3.60;;
19149;SDS011;9707;49.158;8.632;2023-05-29T00:36:48;6.05;;;3.38;;
19149;SDS011;9707;49.158;8.632;2023-05-29T00:39:13;6.43;;;3.67;;
19149;SDS011;9707;49.158;8.632;2023-05-29T00:41:39;7.35;;;3.75;;
19149;SDS011;9707;49.158;8.632;2023-05-29T00:44:04;4.60;;;3.80;;
19149;SDS011;9707;49.158;8.632;2023-05-29T00:46:30;5.47;;;3.78;;
19149;SDS011;9707;49.158;8.632;2023-05-29T00:48:57;8.10;;;3.58;;
19149;SDS011;9707;49.158;8.632;2023-05-29T00:51:24;8.95;;;4.13;;
19149;SDS011;9707;49.158;8.632;2023-05-29T00:53:50;8.05;;;3.40;;
19149;SDS011;9707;49.158;8.632;2023-05-29T00:56:17;5.50;;;3.30;;
19149;SDS011;9707;49.158;8.632;2023-05-29T00:58:45;5.88;;;3.30;;
19149;SDS011;9707;49.158;8.632;2023-05-29T01:01:15;5.32;;;3.33;;
19149;SDS011;9707;49.158;8.632;2023-05-29T01:03:42;4.80;;;3.70;;
19149;SDS011;9707;49.158;8.632;2023-05-29T01:06:08;6.55;;;3.42;;
19149;SDS011;9707;49.158;8.632;2023-05-29T01:08:35;5.40;;;3.53;;
19149;SDS011;9707;49.158;8.632;2023-05-29T01:11:02;5.63;;;3.40;;
19149;SDS011;9707;49.158;8.632;2023-05-29T01:13:35;7.28;;;3.58;;
19149;SDS011;9707;49.158;8.632;2023-05-29T01:16:48;8.55;;;3.25;;
19149;SDS011;9707;49.158;8.632;2023-05-29T01:24:32;6.40;;;3.47;;
19149;SDS011;9707;49.158;8.632;2023-05-29T01:27:03;4.80;;;3.30;;
19149;SDS011;9707;49.158;8.632;2023-05-29T01:29:32;5.32;;;3.00;;
19149;SDS011;9707;49.158;8.632;2023-05-29T01:31:59;9.43;;;4.03;;
19149;SDS011;9707;49.158;8.632;2023-05-29T01:34:26;4.40;;;2.95;;
19149;SDS011;9707;49.158;8.632;2023-05-29T01:36:52;6.18;;;2.90;;
19149;SDS011;9707;49.158;8.632;2023-05-29T01:39:18;5.28;;;3.05;;
19149;SDS011;9707;49.158;8.632;2023-05-29T01:41:47;9.52;;;3.80;;
19149;SDS011;9707;49.158;8.632;2023-05-29T01:44:13;6.38;;;3.20;;
19149;SDS011;9707;49.158;8.632;2023-05-29T01:46:42;4.25;;;3.00;;
19149;SDS011;9707;49.158;8.632;2023-05-29T01:49:08;5.47;;;2.75;;
19149;SDS011;9707;49.158;8.632;2023-05-29T01:51:34;4.63;;;3.20;;
19149;SDS011;9707;49.158;8.632;2023-05-29T01:54:00;5.20;;;2.90;;
19149;SDS011;9707;49.158;8.632;2023-05-29T01:56:27;5.15;;;3.10;;
19149;SDS011;9707;49.158;8.632;2023-05-29T01:58:54;6.88;;;3.35;;
19149;SDS011;9707;49.158;8.632;2023-05-29T02:01:21;5.47;;;3.15;;
19149;SDS011;9707;49.158;8.632;2023-05-29T02:03:47;7.10;;;3.17;;
19149;SDS011;9707;49.158;8.632;2023-05-29T02:06:12;6.88;;;3.35;;
19149;SDS011;9707;49.158;8.632;2023-05-29T02:08:37;5.43;;;3.13;;
19149;SDS011;9707;49.158;8.632;2023-05-29T02:11:03;5.03;;;3.08;;
19149;SDS011;9707;49.158;8.632;2023-05-29T02:13:28;7.50;;;3.80;;
19149;SDS011;9707;49.158;8.632;2023-05-29T02:15:53;6.07;;;3.25;;
19149;SDS011;9707;49.158;8.632;2023-05-29T02:18:18;5.40;;;3.15;;
19149;SDS011;9707;49.158;8.632;2023-05-29T02:20:44;8.05;;;3.17;;
19149;SDS011;9707;49.158;8.632;2023-05-29T02:23:10;6.20;;;3.22;;
19149;SDS011;9707;49.158;8.632;2023-05-29T02:25:35;6.38;;;3.20;;
19149;SDS011;9707;49.158;8.632;2023-05-29T02:28:01;7.22;;;3.13;;
19149;SDS011;9707;49.158;8.632;2023-05-29T02:30:27;4.15;;;2.80;;
19149;SDS011;9707;49.158;8.632;2023-05-29T02:32:53;6.35;;;3.40;;
19149;SDS011;9707;49.158;8.632;2023-05-29T02:35:18;4.90;;;3.25;;
19149;SDS011;9707;49.158;8.632;2023-05-29T02:37:45;3.88;;;2.38;;
19149;SDS011;9707;49.158;8.632;2023-05-29T02:40:11;4.15;;;2.67;;
19149;SDS011;9707;49.158;8.632;2023-05-29T02:42:36;4.93;;;3.00;;
19149;SDS011;9707;49.158;8.632;2023-05-29T02:45:02;4.18;;;2.70;;
19149;SDS011;9707;49.158;8.632;2023-05-29T02:47:27;5.65;;;3.10;;
19149;SDS011;9707;49.158;8.632;2023-05-29T02:49:52;5.53;;;2.83;;
19149;SDS011;9707;49.158;8.632;2023-05-29T02:52:18;5.93;;;2.60;;
19149;SDS011;9707;49.158;8.632;2023-05-29T02:54:43;5.07;;;3.05;;
19149;SDS011;9707;49.158;8.632;2023-05-29T02:57:08;5.07;;;2.60;;
19149;SDS011;9707;49.158;8.632;2023-05-29T02:59:34;3.78;;;2.70;;
19149;SDS011;9707;49.158;8.632;2023-05-29T03:02:00;4.35;;;2.53;;
19149;SDS011;9707;49.158;8.632;2023-05-29T03:04:26;5.25;;;2.92;;
19149;SDS011;9707;49.158;8.632;2023-05-29T03:06:52;4.90;;;3.08;;
19149;SDS011;9707;49.158;8.632;2023-05-29T03:09:17;3.70;;;2.75;;
19149;SDS011;9707;49.158;8.632;2023-05-29T03:11:43;4.30;;;2.92;;
19149;SDS011;9707;49.158;8.632;2023-05-29T03:14:09;4.05;;;2.42;;
19149;SDS011;9707;49.158;8.632;2023-05-29T03:16:34;4.00;;;2.58;;
19149;SDS011;9707;49.158;8.632;2023-05-29T03:19:00;4.68;;;2.78;;
19149;SDS011;9707;49.158;8.632;2023-05-29T03:21:26;4.20;;;2.40;;
19149;SDS011;9707;49.158;8.632;2023-05-29T03:23:51;5.85;;;2.40;;
19149;SDS011;9707;49.158;8.632;2023-05-29T03:26:16;3.75;;;2.40;;
19149;SDS011;9707;49.158;8.632;2023-05-29T03:28:42;5.13;;;2.88;;
19149;SDS011;9707;49.158;8.632;2023-05-29T03:31:07;4.88;;;2.55;;
19149;SDS011;9707;49.158;8.632;2023-05-29T03:33:34;4.15;;;2.72;;
19149;SDS011;9707;49.158;8.632;2023-05-29T03:36:00;4.40;;;2.53;;
19149;SDS011;9707;49.158;8.632;2023-05-29T03:38:26;8.57;;;2.92;;
19149;SDS011;9707;49.158;8.632;2023-05-29T03:40:51;4.47;;;3.03;;
19149;SDS011;9707;49.158;8.632;2023-05-29T03:43:16;4.90;;;2.55;;
19149;SDS011;9707;49.158;8.632;2023-05-29T03:45:41;5.75;;;2.85;;
19149;SDS011;9707;49.158;8.632;2023-05-29T03:48:07;6.47;;;2.85;;
19149;SDS011;9707;49.158;8.632;2023-05-29T03:50:32;6.55;;;2.88;;
19149;SDS011;9707;49.158;8.632;2023-05-29T03:52:57;3.47;;;2.50;;
19149;SDS011;9707;49.158;8.632;2023-05-29T03:55:22;4.05;;;2.90;;
19149;SDS011;9707;49.158;8.632;2023-05-29T03:57:48;5.93;;;2.72;;
19149;SDS011;9707;49.158;8.632;2023-05-29T04:00:13;4.00;;;2.80;;
19149;SDS011;9707;49.158;8.632;2023-05-29T04:02:40;6.75;;;2.85;;
19149;SDS011;9707;49.158;8.632;2023-05-29T04:05:06;4.32;;;3.13;;
19149;SDS011;9707;49.158;8.632;2023-05-29T04:07:34;3.17;;;2.65;;
19149;SDS011;9707;49.158;8.632;2023-05-29T04:10:01;5.10;;;2.92;;
19149;SDS011;9707;49.158;8.632;2023-05-29T04:12:27;4.95;;;2.78;;
19149;SDS011;9707;49.158;8.632;2023-05-29T04:14:52;3.97;;;2.40;;
19149;SDS011;9707;49.158;8.632;2023-05-29T04:17:18;4.90;;;2.55;;
19149;SDS011;9707;49.158;8.632;2023-05-29T04:19:43;4.78;;;2.72;;
19149;SDS011;9707;49.158;8.632;2023-05-29T04:22:08;8.68;;;3.30;;
19149;SDS011;9707;49.158;8.632;2023-05-29T04:24:33;5.38;;;3.00;;
19149;SDS011;9707;49.158;8.632;2023-05-29T04:27:00;4.43;;;2.40;;
19149;SDS011;9707;49.158;8.632;2023-05-29T04:29:26;5.55;;;2.63;;
19149;SDS011;9707;49.158;8.632;2023-05-29T04:31:53;4.03;;;2.40;;
19149;SDS011;9707;49.158;8.632;2023-05-29T04:34:18;3.63;;;2.70;;
19149;SDS011;9707;49.158;8.632;2023-05-29T04:36:45;3.85;;;2.50;;
19149;SDS011;9707;49.158;8.632;2023-05-29T04:39:10;3.28;;;2.20;;
19149;SDS011;9707;49.158;8.632;2023-05-29T04:41:36;5.78;;;2.47;;
19149;SDS011;9707;49.158;8.632;2023-05-29T04:44:03;5.45;;;3.05;;
19149;SDS011;9707;49.158;8.632;2023-05-29T04:46:29;3.80;;;2.60;;
19149;SDS011;9707;49.158;8.632;2023-05-29T04:48:54;4.60;;;2.63;;
19149;SDS011;9707;49.158;8.632;2023-05-29T04:51:23;6.63;;;2.65;;
19149;SDS011;9707;49.158;8.632;2023-05-29T04:53:49;4.50;;;2.50;;
19149;SDS011;9707;49.158;8.632;2023-05-29T04:56:16;7.10;;;3.22;;
19149;SDS011;9707;49.158;8.632;2023-05-29T04:58:43;5.50;;;2.80;;
19149;SDS011;9707;49.158;8.632;2023-05-29T05:01:08;3.58;;;2.60;;
19149;SDS011;9707;49.158;8.632;2023-05-29T05:03:34;4.95;;;2.40;;
19149;SDS011;9707;49.158;8.632;2023-05-29T05:06:00;4.35;;;2.50;;
19149;SDS011;9707;49.158;8.632;2023-05-29T05:08:27;5.72;;;2.95;;
19149;SDS011;9707;49.158;8.632;2023-05-29T05:10:57;3.35;;;2.53;;
19149;SDS011;9707;49.158;8.632;2023-05-29T05:13:23;4.60;;;2.60;;
19149;SDS011;9707;49.158;8.632;2023-05-29T05:15:48;4.03;;;2.83;;
19149;SDS011;9707;49.158;8.632;2023-05-29T05:18:13;4.05;;;2.53;;
19149;SDS011;9707;49.158;8.632;2023-05-29T05:20:39;5.13;;;3.25;;
19149;SDS011;9707;49.158;8.632;2023-05-29T05:23:04;5.45;;;2.83;;
19149;SDS011;9707;49.158;8.632;2023-05-29T05:25:29;3.65;;;2.72;;
19149;SDS011;9707;49.158;8.632;2023-05-29T05:27:55;5.30;;;3.00;;
19149;SDS011;9707;49.158;8.632;2023-05-29T05:30:23;4.53;;;2.58;;
19149;SDS011;9707;49.158;8.632;2023-05-29T05:32:49;5.72;;;3.00;;
19149;SDS011;9707;49.158;8.632;2023-05-29T05:35:14;4.32;;;2.90;;
19149;SDS011;9707;49.158;8.632;2023-05-29T05:37:39;3.88;;;2.92;;
19149;SDS011;9707;49.158;8.632;2023-05-29T05:40:05;4.65;;;3.00;;
19149;SDS011;9707;49.158;8.632;2023-05-29T05:42:33;4.43;;;2.90;;
19149;SDS011;9707;49.158;8.632;2023-05-29T05:44:59;3.33;;;2.45;;
19149;SDS011;9707;49.158;8.632;2023-05-29T05:47:24;5.20;;;2.90;;
19149;SDS011;9707;49.158;8.632;2023-05-29T05:49:50;7.22;;;2.95;;
19149;SDS011;9707;49.158;8.632;2023-05-29T05:52:16;3.90;;;2.75;;
19149;SDS011;9707;49.158;8.632;2023-05-29T05:54:42;4.63;;;3.17;;
19149;SDS011;9707;49.158;8.632;2023-05-29T05:57:07;8.20;;;2.75;;
19149;SDS011;9707;49.158;8.632;2023-05-29T05:59:33;5.32;;;3.25;;
19149;SDS011;9707;49.158;8.632;2023-05-29T06:01:58;4.68;;;3.17;;
19149;SDS011;9707;49.158;8.632;2023-05-29T06:04:23;4.15;;;2.78;;
19149;SDS011;9707;49.158;8.632;2023-05-29T06:06:49;4.35;;;2.42;;
19149;SDS011;9707;49.158;8.632;2023-05-29T06:09:14;5.90;;;2.50;;
19149;SDS011;9707;49.158;8.632;2023-05-29T06:11:39;4.05;;;2.17;;
19149;SDS011;9707;49.158;8.632;2023-05-29T06:14:05;3.50;;;2.50;;
19149;SDS011;9707;49.158;8.632;2023-05-29T06:16:30;6.38;;;2.95;;
19149;SDS011;9707;49.158;8.632;2023-05-29T06:18:55;3.97;;;2.40;;
19149;SDS011;9707;49.158;8.632;2023-05-29T06:21:21;5.15;;;2.55;;
19149;SDS011;9707;49.158;8.632;2023-05-29T06:23:46;5.65;;;2.95;;
19149;SDS011;9707;49.158;8.632;2023-05-29T06:26:12;6.15;;;3.00;;
19149;SDS011;9707;49.158;8.632;2023-05-29T06:28:38;4.50;;;2.20;;
19149;SDS011;9707;49.158;8.632;2023-05-29T06:31:03;3.05;;;1.75;;
19149;SDS011;9707;49.158;8.632;2023-05-29T06:33:28;4.82;;;2.15;;
19149;SDS011;9707;49.158;8.632;2023-05-29T06:35:54;6.03;;;2.42;;
19149;SDS011;9707;49.158;8.632;2023-05-29T06:38:20;6.15;;;2.75;;
19149;SDS011;9707;49.158;8.632;2023-05-29T06:40:45;3.90;;;2.17;;
19149;SDS011;9707;49.158;8.632;2023-05-29T06:43:10;5.13;;;2.40;;
19149;SDS011;9707;49.158;8.632;2023-05-29T06:45:36;3.05;;;1.80;;
19149;SDS011;9707;49.158;8.632;2023-05-29T06:48:01;4.30;;;2.70;;
19149;SDS011;9707;49.158;8.632;2023-05-29T06:50:27;3.65;;;2.35;;
19149;SDS011;9707;49.158;8.632;2023-05-29T06:52:52;3.92;;;2.17;;
19149;SDS011;9707;49.158;8.632;2023-05-29T06:55:17;4.47;;;1.95;;
19149;SDS011;9707;49.158;8.632;2023-05-29T06:57:43;8.52;;;2.75;;
19149;SDS011;9707;49.158;8.632;2023-05-29T07:00:08;4.63;;;2.60;;
19149;SDS011;9707;49.158;8.632;2023-05-29T07:02:35;4.80;;;2.40;;
19149;SDS011;9707;49.158;8.632;2023-05-29T07:05:01;5.90;;;2.72;;
19149;SDS011;9707;49.158;8.632;2023-05-29T07:07:26;4.97;;;2.10;;
19149;SDS011;9707;49.158;8.632;2023-05-29T07:09:51;5.20;;;2.28;;
19149;SDS011;9707;49.158;8.632;2023-05-29T07:12:17;6.15;;;2.70;;
19149;SDS011;9707;49.158;8.632;2023-05-29T07:14:42;5.95;;;2.58;;
19149;SDS011;9707;49.158;8.632;2023-05-29T07:17:07;3.22;;;2.08;;
19149;SDS011;9707;49.158;8.632;2023-05-29T07:19:33;3.03;;;2.10;;
19149;SDS011;9707;49.158;8.632;2023-05-29T07:21:59;3.92;;;2.20;;
19149;SDS011;9707;49.158;8.632;2023-05-29T07:24:24;4.28;;;2.50;;
19149;SDS011;9707;49.158;8.632;2023-05-29T07:26:49;6.13;;;2.70;;
19149;SDS011;9707;49.158;8.632;2023-05-29T07:29:15;3.33;;;2.08;;
19149;SDS011;9707;49.158;8.632;2023-05-29T07:31:42;2.80;;;2.28;;
19149;SDS011;9707;49.158;8.632;2023-05-29T07:34:08;3.55;;;2.17;;
19149;SDS011;9707;49.158;8.632;2023-05-29T07:36:33;5.28;;;3.13;;
19149;SDS011;9707;49.158;8.632;2023-05-29T07:38:58;3.47;;;2.35;;
19149;SDS011;9707;49.158;8.632;2023-05-29T07:41:24;3.90;;;2.20;;
19149;SDS011;9707;49.158;8.632;2023-05-29T07:43:50;3.05;;;2.13;;
19149;SDS011;9707;49.158;8.632;2023-05-29T07:46:17;5.00;;;2.70;;
19149;SDS011;9707;49.158;8.632;2023-05-29T07:48:43;3.35;;;2.25;;
19149;SDS011;9707;49.158;8.632;2023-05-29T07:51:08;3.35;;;2.10;;
19149;SDS011;9707;49.158;8.632;2023-05-29T07:53:35;4.43;;;2.70;;
19149;SDS011;9707;49.158;8.632;2023-05-29T07:56:00;5.13;;;2.20;;
19149;SDS011;9707;49.158;8.632;2023-05-29T07:58:26;3.38;;;2.13;;
19149;SDS011;9707;49.158;8.632;2023-05-29T08:00:52;4.68;;;2.45;;
19149;SDS011;9707;49.158;8.632;2023-05-29T08:03:17;7.10;;;3.30;;
19149;SDS011;9707;49.158;8.632;2023-05-29T08:05:42;5.03;;;2.40;;
19149;SDS011;9707;49.158;8.632;2023-05-29T08:08:07;7.18;;;2.75;;
19149;SDS011;9707;49.158;8.632;2023-05-29T08:10:33;3.75;;;2.40;;
19149;SDS011;9707;49.158;8.632;2023-05-29T08:12:58;4.25;;;2.50;;
19149;SDS011;9707;49.158;8.632;2023-05-29T08:15:23;6.78;;;2.75;;
19149;SDS011;9707;49.158;8.632;2023-05-29T08:17:49;4.03;;;2.45;;
19149;SDS011;9707;49.158;8.632;2023-05-29T08:20:14;5.28;;;2.80;;
19149;SDS011;9707;49.158;8.632;2023-05-29T08:22:39;5.47;;;2.65;;
19149;SDS011;9707;49.158;8.632;2023-05-29T08:25:05;4.03;;;2.33;;
19149;SDS011;9707;49.158;8.632;2023-05-29T08:27:30;5.13;;;2.67;;
19149;SDS011;9707;49.158;8.632;2023-05-29T08:29:56;3.70;;;2.53;;
19149;SDS011;9707;49.158;8.632;2023-05-29T08:32:21;5.93;;;2.45;;
19149;SDS011;9707;49.158;8.632;2023-05-29T08:34:47;4.07;;;2.60;;
19149;SDS011;9707;49.158;8.632;2023-05-29T08:37:13;4.70;;;2.67;;
19149;SDS011;9707;49.158;8.632;2023-05-29T08:39:38;5.00;;;2.80;;
19149;SDS011;9707;49.158;8.632;2023-05-29T08:42:04;4.65;;;2.85;;
19149;SDS011;9707;49.158;8.632;2023-05-29T08:44:33;5.57;;;2.75;;
19149;SDS011;9707;49.158;8.632;2023-05-29T08:47:03;6.57;;;2.85;;
19149;SDS011;9707;49.158;8.632;2023-05-29T08:49:37;5.30;;;2.95;;
19149;SDS011;9707;49.158;8.632;2023-05-29T08:52:09;5.38;;;2.70;;
19149;SDS011;9707;49.158;8.632;2023-05-29T08:54:40;4.40;;;2.78;;
19149;SDS011;9707;49.158;8.632;2023-05-29T08:57:05;5.10;;;3.00;;
19149;SDS011;9707;49.158;8.632;2023-05-29T08:59:31;4.28;;;2.85;;
19149;SDS011;9707;49.158;8.632;2023-05-29T09:01:58;6.35;;;2.83;;
19149;SDS011;9707;49.158;8.632;2023-05-29T09:04:23;3.95;;;2.58;;
19149;SDS011;9707;49.158;8.632;2023-05-29T09:06:48;4.80;;;2.65;;
19149;SDS011;9707;49.158;8.632;2023-05-29T09:09:15;5.32;;;3.20;;
19149;SDS011;9707;49.158;8.632;2023-05-29T09:11:41;5.40;;;3.15;;
19149;SDS011;9707;49.158;8.632;2023-05-29T09:14:09;4.82;;;2.75;;
19149;SDS011;9707;49.158;8.632;2023-05-29T09:16:41;5.78;;;2.33;;
19149;SDS011;9707;49.158;8.632;2023-05-29T09:19:07;5.07;;;2.92;;
19149;SDS011;9707;49.158;8.632;2023-05-29T09:21:32;8.55;;;2.65;;
19149;SDS011;9707;49.158;8.632;2023-05-29T09:24:04;4.72;;;2.90;;
19149;SDS011;9707;49.158;8.632;2023-05-29T09:26:30;7.72;;;3.03;;
19149;SDS011;9707;49.158;8.632;2023-05-29T09:28:56;6.20;;;3.00;;
19149;SDS011;9707;49.158;8.632;2023-05-29T09:31:22;5.15;;;2.63;;
19149;SDS011;9707;49.158;8.632;2023-05-29T09:33:47;3.85;;;2.85;;
19149;SDS011;9707;49.158;8.632;2023-05-29T09:36:23;5.22;;;2.65;;
19149;SDS011;9707;49.158;8.632;2023-05-29T09:38:48;7.65;;;3.92;;
19149;SDS011;9707;49.158;8.632;2023-05-29T09:41:21;6.32;;;3.40;;
19149;SDS011;9707;49.158;8.632;2023-05-29T09:43:49;6.65;;;3.13;;
19149;SDS011;9707;49.158;8.632;2023-05-29T09:46:15;7.18;;;3.17;;
19149;SDS011;9707;49.158;8.632;2023-05-29T09:48:45;6.03;;;2.83;;
19149;SDS011;9707;49.158;8.632;2023-05-29T09:51:23;6.38;;;2.90;;
19149;SDS011;9707;49.158;8.632;2023-05-29T09:53:49;8.48;;;3.40;;
19149;SDS011;9707;49.158;8.632;2023-05-29T09:56:18;6.10;;;3.22;;
19149;SDS011;9707;49.158;8.632;2023-05-29T09:58:49;5.47;;;2.50;;
19149;SDS011;9707;49.158;8.632;2023-05-29T10:01:16;6.53;;;3.40;;
19149;SDS011;9707;49.158;8.632;2023-05-29T10:03:42;6.88;;;2.72;;
19149;SDS011;9707;49.158;8.632;2023-05-29T10:06:07;5.18;;;3.05;;
19149;SDS011;9707;49.158;8.632;2023-05-29T10:08:37;5.68;;;2.80;;
19149;SDS011;9707;49.158;8.632;2023-05-29T10:11:07;6.75;;;2.95;;
19149;SDS011;9707;49.158;8.632;2023-05-29T10:13:36;4.93;;;2.63;;
19149;SDS011;9707;49.158;8.632;2023-05-29T10:16:05;5.05;;;2.70;;
19149;SDS011;9707;49.158;8.632;2023-05-29T10:18:39;6.82;;;2.80;;
19149;SDS011;9707;49.158;8.632;2023-05-29T10:21:10;6.85;;;3.00;;
19149;SDS011;9707;49.158;8.632;2023-05-29T10:23:37;4.35;;;2.25;;
19149;SDS011;9707;49.158;8.632;2023-05-29T10:26:06;4.95;;;2.17;;
19149;SDS011;9707;49.158;8.632;2023-05-29T10:28:41;3.72;;;2.30;;
19149;SDS011;9707;49.158;8.632;2023-05-29T10:31:14;4.00;;;2.40;;
19149;SDS011;9707;49.158;8.632;2023-05-29T10:36:38;5.43;;;2.80;;
19149;SDS011;9707;49.158;8.632;2023-05-29T10:39:12;5.60;;;2.75;;
19149;SDS011;9707;49.158;8.632;2023-05-29T10:41:37;9.07;;;2.83;;
19149;SDS011;9707;49.158;8.632;2023-05-29T10:44:38;7.88;;;3.40;;
19149;SDS011;9707;49.158;8.632;2023-05-29T10:49:23;5.28;;;2.40;;
19149;SDS011;9707;49.158;8.632;2023-05-29T10:51:48;5.55;;;2.45;;
19149;SDS011;9707;49.158;8.632;2023-05-29T10:54:16;4.13;;;2.42;;
19149;SDS011;9707;49.158;8.632;2023-05-29T10:56:55;2.80;;;2.22;;
19149;SDS011;9707;49.158;8.632;2023-05-29T10:59:22;5.90;;;2.55;;
19149;SDS011;9707;49.158;8.632;2023-05-29T11:01:51;5.53;;;3.28;;
19149;SDS011;9707;49.158;8.632;2023-05-29T11:06:46;3.50;;;2.33;;
19149;SDS011;9707;49.158;8.632;2023-05-29T11:14:53;5.00;;;2.80;;
19149;SDS011;9707;49.158;8.632;2023-05-29T11:17:42;5.80;;;2.53;;
19149;SDS011;9707;49.158;8.632;2023-05-29T11:20:16;5.38;;;2.78;;
19149;SDS011;9707;49.158;8.632;2023-05-29T11:23:03;5.18;;;2.60;;
19149;SDS011;9707;49.158;8.632;2023-05-29T11:25:33;4.90;;;2.60;;
19149;SDS011;9707;49.158;8.632;2023-05-29T11:28:00;5.40;;;2.70;;
19149;SDS011;9707;49.158;8.632;2023-05-29T11:30:25;4.93;;;2.50;;
19149;SDS011;9707;49.158;8.632;2023-05-29T11:32:52;5.40;;;2.80;;
19149;SDS011;9707;49.158;8.632;2023-05-29T11:35:19;4.88;;;2.70;;
19149;SDS011;9707;49.158;8.632;2023-05-29T11:37:47;3.70;;;2.45;;
19149;SDS011;9707;49.158;8.632;2023-05-29T11:40:13;4.53;;;2.60;;
19149;SDS011;9707;49.158;8.632;2023-05-29T11:42:43;3.58;;;2.10;;
19149;SDS011;9707;49.158;8.632;2023-05-29T11:45:11;5.13;;;2.80;;
19149;SDS011;9707;49.158;8.632;2023-05-29T11:47:53;3.67;;;2.33;;
19149;SDS011;9707;49.158;8.632;2023-05-29T11:50:20;7.30;;;3.30;;
19149;SDS011;9707;49.158;8.632;2023-05-29T11:52:47;5.50;;;2.40;;
19149;SDS011;9707;49.158;8.632;2023-05-29T11:55:12;6.70;;;2.72;;
19149;SDS011;9707;49.158;8.632;2023-05-29T11:57:38;5.60;;;2.60;;
19149;SDS011;9707;49.158;8.632;2023-05-29T12:00:04;5.10;;;2.75;;
19149;SDS011;9707;49.158;8.632;2023-05-29T12:02:33;5.60;;;2.70;;
19149;SDS011;9707;49.158;8.632;2023-05-29T12:05:04;4.35;;;2.50;;
19149;SDS011;9707;49.158;8.632;2023-05-29T12:07:32;3.85;;;2.42;;
19149;SDS011;9707;49.158;8.632;2023-05-29T12:10:08;5.18;;;2.47;;
19149;SDS011;9707;49.158;8.632;2023-05-29T12:12:36;4.75;;;2.40;;
19149;SDS011;9707;49.158;8.632;2023-05-29T12:15:02;4.75;;;2.20;;
19149;SDS011;9707;49.158;8.632;2023-05-29T12:17:30;4.05;;;2.25;;
19149;SDS011;9707;49.158;8.632;2023-05-29T12:19:56;3.78;;;2.42;;
19149;SDS011;9707;49.158;8.632;2023-05-29T12:22:34;2.90;;;2.45;;
19149;SDS011;9707;49.158;8.632;2023-05-29T12:27:39;3.08;;;2.28;;
19149;SDS011;9707;49.158;8.632;2023-05-29T12:30:09;3.20;;;2.22;;
19149;SDS011;9707;49.158;8.632;2023-05-29T12:32:44;4.45;;;2.70;;
19149;SDS011;9707;49.158;8.632;2023-05-29T12:35:11;3.17;;;2.38;;
19149;SDS011;9707;49.158;8.632;2023-05-29T12:45:22;3.65;;;2.00;;
19149;SDS011;9707;49.158;8.632;2023-05-29T12:47:50;2.67;;;2.00;;
19149;SDS011;9707;49.158;8.632;2023-05-29T12:50:24;5.13;;;2.10;;
19149;SDS011;9707;49.158;8.632;2023-05-29T12:55:20;3.13;;;2.00;;
19149;SDS011;9707;49.158;8.632;2023-05-29T12:57:45;2.70;;;2.30;;
19149;SDS011;9707;49.158;8.632;2023-05-29T13:00:11;5.38;;;2.45;;
19149;SDS011;9707;49.158;8.632;2023-05-29T13:02:37;4.18;;;2.47;;
19149;SDS011;9707;49.158;8.632;2023-05-29T13:05:02;5.80;;;2.25;;
19149;SDS011;9707;49.158;8.632;2023-05-29T13:07:28;4.13;;;2.25;;
19149;SDS011;9707;49.158;8.632;2023-05-29T13:09:53;2.92;;;1.92;;
19149;SDS011;9707;49.158;8.632;2023-05-29T13:12:18;4.38;;;2.53;;
19149;SDS011;9707;49.158;8.632;2023-05-29T13:14:44;3.40;;;2.08;;
19149;SDS011;9707;49.158;8.632;2023-05-29T13:17:09;3.53;;;2.42;;
19149;SDS011;9707;49.158;8.632;2023-05-29T13:19:34;2.55;;;1.98;;
19149;SDS011;9707;49.158;8.632;2023-05-29T13:22:00;3.10;;;2.33;;
19149;SDS011;9707;49.158;8.632;2023-05-29T13:24:26;3.28;;;2.20;;
19149;SDS011;9707;49.158;8.632;2023-05-29T13:26:51;2.70;;;2.20;;
19149;SDS011;9707;49.158;8.632;2023-05-29T13:29:16;2.97;;;2.00;;
19149;SDS011;9707;49.158;8.632;2023-05-29T13:31:42;2.90;;;2.50;;
19149;SDS011;9707;49.158;8.632;2023-05-29T13:34:07;2.63;;;2.42;;
19149;SDS011;9707;49.158;8.632;2023-05-29T13:36:32;5.80;;;2.50;;
19149;SDS011;9707;49.158;8.632;2023-05-29T13:38:57;3.38;;;2.20;;
19149;SDS011;9707;49.158;8.632;2023-05-29T13:41:23;3.35;;;2.25;;
19149;SDS011;9707;49.158;8.632;2023-05-29T13:43:48;3.95;;;2.50;;
19149;SDS011;9707;49.158;8.632;2023-05-29T13:46:13;4.20;;;2.38;;
19149;SDS011;9707;49.158;8.632;2023-05-29T13:48:38;3.05;;;1.90;;
19149;SDS011;9707;49.158;8.632;2023-05-29T13:51:04;4.30;;;2.35;;
19149;SDS011;9707;49.158;8.632;2023-05-29T13:53:29;3.53;;;1.75;;
19149;SDS011;9707;49.158;8.632;2023-05-29T13:55:54;3.60;;;2.13;;
19149;SDS011;9707;49.158;8.632;2023-05-29T13:58:20;3.05;;;2.28;;
19149;SDS011;9707;49.158;8.632;2023-05-29T14:00:45;5.40;;;2.63;;
19149;SDS011;9707;49.158;8.632;2023-05-29T14:03:11;3.63;;;1.92;;
19149;SDS011;9707;49.158;8.632;2023-05-29T14:05:36;3.40;;;1.92;;
19149;SDS011;9707;49.158;8.632;2023-05-29T14:08:01;3.05;;;1.90;;
19149;SDS011;9707;49.158;8.632;2023-05-29T14:10:26;4.47;;;2.40;;
19149;SDS011;9707;49.158;8.632;2023-05-29T14:12:52;4.70;;;2.20;;
19149;SDS011;9707;49.158;8.632;2023-05-29T14:15:17;4.30;;;2.42;;
19149;SDS011;9707;49.158;8.632;2023-05-29T14:17:42;4.32;;;2.28;;
19149;SDS011;9707;49.158;8.632;2023-05-29T14:20:08;6.57;;;2.80;;
19149;SDS011;9707;49.158;8.632;2023-05-29T14:22:33;4.05;;;2.20;;
19149;SDS011;9707;49.158;8.632;2023-05-29T14:25:00;5.32;;;2.10;;
19149;SDS011;9707;49.158;8.632;2023-05-29T14:27:26;3.10;;;2.03;;
19149;SDS011;9707;49.158;8.632;2023-05-29T14:29:51;3.50;;;2.45;;
19149;SDS011;9707;49.158;8.632;2023-05-29T14:32:16;2.53;;;2.08;;
19149;SDS011;9707;49.158;8.632;2023-05-29T14:34:42;3.40;;;2.10;;
19149;SDS011;9707;49.158;8.632;2023-05-29T14:37:07;2.45;;;1.75;;
19149;SDS011;9707;49.158;8.632;2023-05-29T14:39:32;3.10;;;2.13;;
19149;SDS011;9707;49.158;8.632;2023-05-29T14:42:00;4.60;;;2.00;;
19149;SDS011;9707;49.158;8.632;2023-05-29T14:44:26;2.80;;;2.03;;
19149;SDS011;9707;49.158;8.632;2023-05-29T14:46:51;2.60;;;1.73;;
19149;SDS011;9707;49.158;8.632;2023-05-29T14:49:17;3.60;;;2.00;;
19149;SDS011;9707;49.158;8.632;2023-05-29T14:51:42;5.72;;;1.80;;
19149;SDS011;9707;49.158;8.632;2023-05-29T14:54:09;3.05;;;2.10;;
19149;SDS011;9707;49.158;8.632;2023-05-29T14:56:34;3.08;;;1.98;;
19149;SDS011;9707;49.158;8.632;2023-05-29T14:59:00;3.75;;;2.20;;
19149;SDS011;9707;49.158;8.632;2023-05-29T15:01:25;2.85;;;1.80;;
19149;SDS011;9707;49.158;8.632;2023-05-29T15:03:50;3.72;;;2.15;;
19149;SDS011;9707;49.158;8.632;2023-05-29T15:06:16;3.83;;;2.42;;
19149;SDS011;9707;49.158;8.632;2023-05-29T15:08:41;3.20;;;1.92;;
19149;SDS011;9707;49.158;8.632;2023-05-29T15:11:08;4.40;;;2.38;;
19149;SDS011;9707;49.158;8.632;2023-05-29T15:13:34;2.75;;;2.13;;
19149;SDS011;9707;49.158;8.632;2023-05-29T15:16:00;5.03;;;2.30;;
19149;SDS011;9707;49.158;8.632;2023-05-29T15:18:27;3.08;;;2.22;;
19149;SDS011;9707;49.158;8.632;2023-05-29T15:20:53;3.03;;;1.95;;
19149;SDS011;9707;49.158;8.632;2023-05-29T15:23:18;3.97;;;2.17;;
19149;SDS011;9707;49.158;8.632;2023-05-29T15:25:46;3.72;;;2.13;;
19149;SDS011;9707;49.158;8.632;2023-05-29T15:28:12;4.43;;;2.05;;